sensor_id;sensor_type;location;lat;lon;timestamp;temperature;humidity
49489;SHT31;35382;51.484;11.476;2022-11-25T00:00:34;1.18;99.99
49489;SHT31;35382;51.484;11.476;2022-11-25T00:02:15;1.09;99.99
49489;SHT31;35382;51.484;11.476;2022-11-25T00:03:57;1.08;99.99
49489;SHT31;35382;51.484;11.476;2022-11-25T00:05:38;1.05;99.99
49489;SHT31;35382;51.484;11.476;2022-11-25T00:07:19;1.19;99.99
49489;SHT31;35382;51.484;11.476;2022-11-25T00:09:09;1.12;99.99
49489;SHT31;35382;51.484;11.476;2022-11-25T00:10:50;1.08;99.99
49489;SHT31;35382;51.484;11.476;2022-11-25T00:12:31;1.04;99.99
49489;SHT31;35382;51.484;11.476;2022-11-25T00:14:14;0.95;99.99
49489;SHT31;35382;51.484;11.476;2022-11-25T00:15:54;0.89;99.99
49489;SHT31;35382;51.484;11.476;2022-11-25T00:17:35;0.85;99.99
49489;SHT31;35382;51.484;11.476;2022-11-25T00:19:16;0.80;99.99
49489;SHT31;35382;51.484;11.476;2022-11-25T00:20:58;0.75;99.99
49489;SHT31;35382;51.484;11.476;2022-11-25T00:22:44;0.70;99.99
49489;SHT31;35382;51.484;11.476;2022-11-25T00:24:25;0.75;99.99
49489;SHT31;35382;51.484;11.476;2022-11-25T00:27:51;0.70;99.99
49489;SHT31;35382;51.484;11.476;2022-11-25T00:29:32;0.63;99.99
49489;SHT31;35382;51.484;11.476;2022-11-25T00:31:16;0.60;99.99
49489;SHT31;35382;51.484;11.476;2022-11-25T00:32:58;0.56;99.99
49489;SHT31;35382;51.484;11.476;2022-11-25T00:34:40;0.56;99.99
49489;SHT31;35382;51.484;11.476;2022-11-25T00:36:27;0.64;99.99
49489;SHT31;35382;51.484;11.476;2022-11-25T00:38:08;0.51;99.99
49489;SHT31;35382;51.484;11.476;2022-11-25T00:39:49;0.50;99.99
49489;SHT31;35382;51.484;11.476;2022-11-25T00:41:31;0.50;99.99
49489;SHT31;35382;51.484;11.476;2022-11-25T00:43:31;0.49;99.99
49489;SHT31;35382;51.484;11.476;2022-11-25T00:45:30;0.46;99.99
49489;SHT31;35382;51.484;11.476;2022-11-25T00:47:14;0.46;99.99
49489;SHT31;35382;51.484;11.476;2022-11-25T00:48:56;0.47;99.99
49489;SHT31;35382;51.484;11.476;2022-11-25T00:50:37;0.46;99.99
49489;SHT31;35382;51.484;11.476;2022-11-25T00:52:20;0.37;99.99
49489;SHT31;35382;51.484;11.476;2022-11-25T00:54:01;0.39;99.99
49489;SHT31;35382;51.484;11.476;2022-11-25T00:55:43;0.34;99.99
49489;SHT31;35382;51.484;11.476;2022-11-25T00:57:46;0.37;99.99
49489;SHT31;35382;51.484;11.476;2022-11-25T00:59:28;0.54;99.99
49489;SHT31;35382;51.484;11.476;2022-11-25T01:01:10;0.53;99.99
49489;SHT31;35382;51.484;11.476;2022-11-25T01:02:51;0.49;99.99
49489;SHT31;35382;51.484;11.476;2022-11-25T01:04:32;0.49;99.99
49489;SHT31;35382;51.484;11.476;2022-11-25T01:06:13;0.63;99.99
49489;SHT31;35382;51.484;11.476;2022-11-25T01:07:54;0.58;99.99
49489;SHT31;35382;51.484;11.476;2022-11-25T01:09:35;0.54;99.99
49489;SHT31;35382;51.484;11.476;2022-11-25T01:11:19;0.56;99.99
49489;SHT31;35382;51.484;11.476;2022-11-25T01:13:00;0.46;99.99
49489;SHT31;35382;51.484;11.476;2022-11-25T01:14:41;0.39;99.99
49489;SHT31;35382;51.484;11.476;2022-11-25T01:16:23;0.37;99.99
49489;SHT31;35382;51.484;11.476;2022-11-25T01:18:04;0.33;99.99
49489;SHT31;35382;51.484;11.476;2022-11-25T01:19:46;0.46;99.99
49489;SHT31;35382;51.484;11.476;2022-11-25T01:21:32;0.44;99.99
49489;SHT31;35382;51.484;11.476;2022-11-25T01:23:14;0.53;99.99
49489;SHT31;35382;51.484;11.476;2022-11-25T01:24:55;0.58;99.99
49489;SHT31;35382;51.484;11.476;2022-11-25T01:26:36;0.61;99.99
49489;SHT31;35382;51.484;11.476;2022-11-25T01:28:17;0.61;99.99
49489;SHT31;35382;51.484;11.476;2022-11-25T01:29:58;0.63;99.99
49489;SHT31;35382;51.484;11.476;2022-11-25T01:31:39;0.58;99.99
49489;SHT31;35382;51.484;11.476;2022-11-25T01:33:20;0.57;99.99
49489;SHT31;35382;51.484;11.476;2022-11-25T01:35:01;0.77;99.99
49489;SHT31;35382;51.484;11.476;2022-11-25T01:36:45;0.84;99.99
49489;SHT31;35382;51.484;11.476;2022-11-25T01:38:26;0.81;99.99
49489;SHT31;35382;51.484;11.476;2022-11-25T01:40:07;0.75;99.99
49489;SHT31;35382;51.484;11.476;2022-11-25T01:41:49;0.58;99.99
49489;SHT31;35382;51.484;11.476;2022-11-25T01:43:30;0.54;99.99
49489;SHT31;35382;51.484;11.476;2022-11-25T01:47:21;0.29;99.99
49489;SHT31;35382;51.484;11.476;2022-11-25T01:49:06;0.14;99.99
49489;SHT31;35382;51.484;11.476;2022-11-25T01:50:49;0.06;99.99
49489;SHT31;35382;51.484;11.476;2022-11-25T01:52:32;0.05;99.99
49489;SHT31;35382;51.484;11.476;2022-11-25T01:54:17;0.02;99.99
49489;SHT31;35382;51.484;11.476;2022-11-25T01:56:02;-0.05;99.99
49489;SHT31;35382;51.484;11.476;2022-11-25T01:57:53;0.09;99.99
49489;SHT31;35382;51.484;11.476;2022-11-25T01:59:42;0.03;99.99
49489;SHT31;35382;51.484;11.476;2022-11-25T02:01:24;0.00;99.99
49489;SHT31;35382;51.484;11.476;2022-11-25T02:03:06;0.16;99.99
49489;SHT31;35382;51.484;11.476;2022-11-25T02:04:48;0.19;99.99
49489;SHT31;35382;51.484;11.476;2022-11-25T02:06:35;0.05;99.99
49489;SHT31;35382;51.484;11.476;2022-11-25T02:08:18;0.03;99.99
49489;SHT31;35382;51.484;11.476;2022-11-25T02:10:02;0.02;99.99
49489;SHT31;35382;51.484;11.476;2022-11-25T02:11:44;0.05;99.99
49489;SHT31;35382;51.484;11.476;2022-11-25T02:13:26;0.06;99.99
49489;SHT31;35382;51.484;11.476;2022-11-25T02:15:08;0.02;99.99
49489;SHT31;35382;51.484;11.476;2022-11-25T02:16:51;0.03;99.99
49489;SHT31;35382;51.484;11.476;2022-11-25T02:18:32;0.09;99.99
49489;SHT31;35382;51.484;11.476;2022-11-25T02:20:16;0.10;99.99
49489;SHT31;35382;51.484;11.476;2022-11-25T02:22:02;0.07;99.99
49489;SHT31;35382;51.484;11.476;2022-11-25T02:24:02;0.09;99.99
49489;SHT31;35382;51.484;11.476;2022-11-25T02:25:44;0.11;99.99
49489;SHT31;35382;51.484;11.476;2022-11-25T02:27:28;0.23;99.99
49489;SHT31;35382;51.484;11.476;2022-11-25T02:29:10;0.34;99.99
49489;SHT31;35382;51.484;11.476;2022-11-25T02:30:51;0.51;99.99
49489;SHT31;35382;51.484;11.476;2022-11-25T02:32:32;0.50;99.99
49489;SHT31;35382;51.484;11.476;2022-11-25T02:34:14;0.54;99.99
49489;SHT31;35382;51.484;11.476;2022-11-25T02:36:00;0.44;99.99
49489;SHT31;35382;51.484;11.476;2022-11-25T02:37:43;0.46;99.99
49489;SHT31;35382;51.484;11.476;2022-11-25T02:39:24;0.51;99.99
49489;SHT31;35382;51.484;11.476;2022-11-25T02:41:14;0.51;99.99
49489;SHT31;35382;51.484;11.476;2022-11-25T02:42:59;0.49;99.99
49489;SHT31;35382;51.484;11.476;2022-11-25T02:44:40;0.44;99.99
49489;SHT31;35382;51.484;11.476;2022-11-25T02:46:24;0.30;99.99
49489;SHT31;35382;51.484;11.476;2022-11-25T02:48:05;0.24;99.99
49489;SHT31;35382;51.484;11.476;2022-11-25T02:49:46;0.21;99.99
49489;SHT31;35382;51.484;11.476;2022-11-25T02:54:20;0.26;99.99
49489;SHT31;35382;51.484;11.476;2022-11-25T02:56:03;0.40;99.99
49489;SHT31;35382;51.484;11.476;2022-11-25T02:57:44;0.41;99.99
49489;SHT31;35382;51.484;11.476;2022-11-25T02:59:25;0.43;99.99
49489;SHT31;35382;51.484;11.476;2022-11-25T03:01:06;0.46;99.99
49489;SHT31;35382;51.484;11.476;2022-11-25T03:02:53;0.44;99.99
49489;SHT31;35382;51.484;11.476;2022-11-25T03:04:35;0.43;99.99
49489;SHT31;35382;51.484;11.476;2022-11-25T03:06:16;0.43;99.99
49489;SHT31;35382;51.484;11.476;2022-11-25T03:07:57;0.39;99.99
49489;SHT31;35382;51.484;11.476;2022-11-25T03:09:38;0.34;99.99
49489;SHT31;35382;51.484;11.476;2022-11-25T03:11:19;0.36;99.99
49489;SHT31;35382;51.484;11.476;2022-11-25T03:13:01;0.37;99.99
49489;SHT31;35382;51.484;11.476;2022-11-25T03:14:42;0.51;99.99
49489;SHT31;35382;51.484;11.476;2022-11-25T03:16:23;0.34;99.99
49489;SHT31;35382;51.484;11.476;2022-11-25T03:18:04;0.31;99.99
49489;SHT31;35382;51.484;11.476;2022-11-25T03:19:45;0.19;99.99
49489;SHT31;35382;51.484;11.476;2022-11-25T03:21:26;0.03;99.99
49489;SHT31;35382;51.484;11.476;2022-11-25T03:23:07;0.00;99.99
49489;SHT31;35382;51.484;11.476;2022-11-25T03:24:48;-0.17;99.99
49489;SHT31;35382;51.484;11.476;2022-11-25T03:26:29;-0.13;99.99
49489;SHT31;35382;51.484;11.476;2022-11-25T03:28:10;0.09;99.99
49489;SHT31;35382;51.484;11.476;2022-11-25T03:29:51;0.23;99.99
49489;SHT31;35382;51.484;11.476;2022-11-25T03:31:32;0.30;99.99
49489;SHT31;35382;51.484;11.476;2022-11-25T03:33:13;0.37;99.99
49489;SHT31;35382;51.484;11.476;2022-11-25T03:34:54;0.64;99.99
49489;SHT31;35382;51.484;11.476;2022-11-25T03:36:35;0.57;99.99
49489;SHT31;35382;51.484;11.476;2022-11-25T03:38:16;0.44;99.99
49489;SHT31;35382;51.484;11.476;2022-11-25T03:39:56;0.31;99.99
49489;SHT31;35382;51.484;11.476;2022-11-25T03:41:38;0.11;99.99
49489;SHT31;35382;51.484;11.476;2022-11-25T03:43:19;0.03;99.99
49489;SHT31;35382;51.484;11.476;2022-11-25T03:45:03;0.07;99.99
49489;SHT31;35382;51.484;11.476;2022-11-25T03:46:45;0.05;99.99
49489;SHT31;35382;51.484;11.476;2022-11-25T03:48:26;0.09;99.99
49489;SHT31;35382;51.484;11.476;2022-11-25T03:50:08;0.09;99.99
49489;SHT31;35382;51.484;11.476;2022-11-25T03:51:49;0.07;99.99
49489;SHT31;35382;51.484;11.476;2022-11-25T03:53:32;0.02;99.99
49489;SHT31;35382;51.484;11.476;2022-11-25T03:55:15;-0.07;99.99
49489;SHT31;35382;51.484;11.476;2022-11-25T03:56:59;0.02;99.99
49489;SHT31;35382;51.484;11.476;2022-11-25T03:58:40;0.06;99.99
49489;SHT31;35382;51.484;11.476;2022-11-25T04:00:24;0.05;99.99
49489;SHT31;35382;51.484;11.476;2022-11-25T04:02:12;0.09;99.99
49489;SHT31;35382;51.484;11.476;2022-11-25T04:03:53;0.03;99.99
49489;SHT31;35382;51.484;11.476;2022-11-25T04:05:34;0.03;99.99
49489;SHT31;35382;51.484;11.476;2022-11-25T04:07:19;-0.01;99.99
49489;SHT31;35382;51.484;11.476;2022-11-25T04:09:01;-0.10;99.99
49489;SHT31;35382;51.484;11.476;2022-11-25T04:10:42;-0.08;99.99
49489;SHT31;35382;51.484;11.476;2022-11-25T04:12:24;0.00;99.99
49489;SHT31;35382;51.484;11.476;2022-11-25T04:14:24;0.02;99.99
49489;SHT31;35382;51.484;11.476;2022-11-25T04:16:05;0.09;99.99
49489;SHT31;35382;51.484;11.476;2022-11-25T04:17:46;0.13;99.99
49489;SHT31;35382;51.484;11.476;2022-11-25T04:19:27;0.10;99.99
49489;SHT31;35382;51.484;11.476;2022-11-25T04:21:08;0.24;99.99
49489;SHT31;35382;51.484;11.476;2022-11-25T04:22:49;0.31;99.99
49489;SHT31;35382;51.484;11.476;2022-11-25T04:24:31;0.30;99.99
49489;SHT31;35382;51.484;11.476;2022-11-25T04:26:12;0.43;99.99
49489;SHT31;35382;51.484;11.476;2022-11-25T04:27:54;0.47;99.99
49489;SHT31;35382;51.484;11.476;2022-11-25T04:29:41;0.44;99.99
49489;SHT31;35382;51.484;11.476;2022-11-25T04:31:24;0.40;99.99
49489;SHT31;35382;51.484;11.476;2022-11-25T04:33:05;0.30;99.99
49489;SHT31;35382;51.484;11.476;2022-11-25T04:34:46;0.26;99.99
49489;SHT31;35382;51.484;11.476;2022-11-25T04:36:27;0.13;99.99
49489;SHT31;35382;51.484;11.476;2022-11-25T04:38:09;0.07;99.99
49489;SHT31;35382;51.484;11.476;2022-11-25T04:39:51;0.05;99.99
49489;SHT31;35382;51.484;11.476;2022-11-25T04:41:33;0.05;99.99
49489;SHT31;35382;51.484;11.476;2022-11-25T04:43:14;0.07;99.99
49489;SHT31;35382;51.484;11.476;2022-11-25T04:45:08;0.07;99.99
49489;SHT31;35382;51.484;11.476;2022-11-25T04:46:49;0.20;99.99
49489;SHT31;35382;51.484;11.476;2022-11-25T04:48:30;0.30;99.99
49489;SHT31;35382;51.484;11.476;2022-11-25T04:50:14;0.23;99.99
49489;SHT31;35382;51.484;11.476;2022-11-25T04:52:05;0.27;99.99
49489;SHT31;35382;51.484;11.476;2022-11-25T04:53:46;0.49;99.99
49489;SHT31;35382;51.484;11.476;2022-11-25T04:55:28;0.51;99.99
49489;SHT31;35382;51.484;11.476;2022-11-25T04:57:13;0.51;99.99
49489;SHT31;35382;51.484;11.476;2022-11-25T05:01:59;0.30;99.99
49489;SHT31;35382;51.484;11.476;2022-11-25T05:03:52;0.09;99.99
49489;SHT31;35382;51.484;11.476;2022-11-25T05:05:33;-0.04;99.99
49489;SHT31;35382;51.484;11.476;2022-11-25T05:07:15;-0.14;99.99
49489;SHT31;35382;51.484;11.476;2022-11-25T05:08:58;-0.31;99.99
49489;SHT31;35382;51.484;11.476;2022-11-25T05:10:40;-0.48;99.99
49489;SHT31;35382;51.484;11.476;2022-11-25T05:12:27;-0.44;99.99
49489;SHT31;35382;51.484;11.476;2022-11-25T05:14:08;-0.38;99.99
49489;SHT31;35382;51.484;11.476;2022-11-25T05:15:48;-0.32;99.99
49489;SHT31;35382;51.484;11.476;2022-11-25T05:17:37;-0.22;99.99
49489;SHT31;35382;51.484;11.476;2022-11-25T05:19:19;-0.21;99.99
49489;SHT31;35382;51.484;11.476;2022-11-25T05:21:04;-0.31;99.99
49489;SHT31;35382;51.484;11.476;2022-11-25T05:22:50;-0.31;99.99
49489;SHT31;35382;51.484;11.476;2022-11-25T05:24:35;-0.35;99.99
49489;SHT31;35382;51.484;11.476;2022-11-25T05:26:16;-0.37;99.99
49489;SHT31;35382;51.484;11.476;2022-11-25T05:28:02;-0.31;99.99
49489;SHT31;35382;51.484;11.476;2022-11-25T05:29:43;-0.14;99.99
49489;SHT31;35382;51.484;11.476;2022-11-25T05:31:25;-0.05;99.99
49489;SHT31;35382;51.484;11.476;2022-11-25T05:33:07;-0.04;99.99
49489;SHT31;35382;51.484;11.476;2022-11-25T05:34:48;-0.03;99.99
49489;SHT31;35382;51.484;11.476;2022-11-25T05:36:30;-0.11;99.99
49489;SHT31;35382;51.484;11.476;2022-11-25T05:38:11;-0.17;99.99
49489;SHT31;35382;51.484;11.476;2022-11-25T05:39:52;-0.14;99.99
49489;SHT31;35382;51.484;11.476;2022-11-25T05:41:48;-0.22;99.99
49489;SHT31;35382;51.484;11.476;2022-11-25T05:43:30;-0.21;99.99
49489;SHT31;35382;51.484;11.476;2022-11-25T05:45:13;-0.14;99.99
49489;SHT31;35382;51.484;11.476;2022-11-25T05:46:54;-0.07;99.99
49489;SHT31;35382;51.484;11.476;2022-11-25T05:48:35;-0.24;99.99
49489;SHT31;35382;51.484;11.476;2022-11-25T05:50:16;-0.19;99.99
49489;SHT31;35382;51.484;11.476;2022-11-25T05:52:16;-0.10;99.99
49489;SHT31;35382;51.484;11.476;2022-11-25T05:54:05;-0.15;99.99
49489;SHT31;35382;51.484;11.476;2022-11-25T05:55:56;-0.19;99.99
49489;SHT31;35382;51.484;11.476;2022-11-25T05:57:58;-0.25;99.99
49489;SHT31;35382;51.484;11.476;2022-11-25T05:59:39;-0.14;99.99
49489;SHT31;35382;51.484;11.476;2022-11-25T06:01:28;-0.17;99.99
49489;SHT31;35382;51.484;11.476;2022-11-25T06:03:09;-0.13;99.99
49489;SHT31;35382;51.484;11.476;2022-11-25T06:04:50;0.03;99.99
49489;SHT31;35382;51.484;11.476;2022-11-25T06:06:32;0.03;99.99
49489;SHT31;35382;51.484;11.476;2022-11-25T06:08:13;0.06;99.99
49489;SHT31;35382;51.484;11.476;2022-11-25T06:09:54;0.16;99.99
49489;SHT31;35382;51.484;11.476;2022-11-25T06:11:35;0.21;99.99
49489;SHT31;35382;51.484;11.476;2022-11-25T06:13:16;0.10;99.99
49489;SHT31;35382;51.484;11.476;2022-11-25T06:14:57;0.14;99.99
49489;SHT31;35382;51.484;11.476;2022-11-25T06:16:39;0.10;99.99
49489;SHT31;35382;51.484;11.476;2022-11-25T06:18:33;0.11;99.99
49489;SHT31;35382;51.484;11.476;2022-11-25T06:20:13;0.14;99.99
49489;SHT31;35382;51.484;11.476;2022-11-25T06:21:54;0.09;99.99
49489;SHT31;35382;51.484;11.476;2022-11-25T06:23:36;0.05;99.99
49489;SHT31;35382;51.484;11.476;2022-11-25T06:25:18;-0.03;99.99
49489;SHT31;35382;51.484;11.476;2022-11-25T06:27:00;0.00;99.99
49489;SHT31;35382;51.484;11.476;2022-11-25T06:28:41;0.02;99.99
49489;SHT31;35382;51.484;11.476;2022-11-25T06:30:29;0.06;99.99
49489;SHT31;35382;51.484;11.476;2022-11-25T06:32:29;0.33;99.99
49489;SHT31;35382;51.484;11.476;2022-11-25T06:34:17;0.31;99.99
49489;SHT31;35382;51.484;11.476;2022-11-25T06:36:01;0.43;99.99
49489;SHT31;35382;51.484;11.476;2022-11-25T06:37:42;0.57;99.99
49489;SHT31;35382;51.484;11.476;2022-11-25T06:39:23;0.51;99.99
49489;SHT31;35382;51.484;11.476;2022-11-25T06:41:04;0.54;99.99
49489;SHT31;35382;51.484;11.476;2022-11-25T06:42:45;0.44;99.99
49489;SHT31;35382;51.484;11.476;2022-11-25T06:44:26;0.33;99.99
49489;SHT31;35382;51.484;11.476;2022-11-25T06:46:10;0.24;99.99
49489;SHT31;35382;51.484;11.476;2022-11-25T06:47:51;0.20;99.99
49489;SHT31;35382;51.484;11.476;2022-11-25T06:49:33;0.20;99.99
49489;SHT31;35382;51.484;11.476;2022-11-25T06:51:15;0.19;99.99
49489;SHT31;35382;51.484;11.476;2022-11-25T06:52:56;0.16;99.99
49489;SHT31;35382;51.484;11.476;2022-11-25T06:54:37;0.14;99.99
49489;SHT31;35382;51.484;11.476;2022-11-25T06:56:25;0.11;99.99
49489;SHT31;35382;51.484;11.476;2022-11-25T06:58:07;0.11;99.99
49489;SHT31;35382;51.484;11.476;2022-11-25T06:59:48;0.10;99.99
49489;SHT31;35382;51.484;11.476;2022-11-25T07:01:29;-0.01;99.99
49489;SHT31;35382;51.484;11.476;2022-11-25T07:03:10;-0.04;99.99
49489;SHT31;35382;51.484;11.476;2022-11-25T07:04:51;-0.01;99.99
49489;SHT31;35382;51.484;11.476;2022-11-25T07:06:32;0.03;99.99
49489;SHT31;35382;51.484;11.476;2022-11-25T07:08:13;0.06;99.99
49489;SHT31;35382;51.484;11.476;2022-11-25T07:09:54;0.06;99.99
49489;SHT31;35382;51.484;11.476;2022-11-25T07:11:36;-0.01;99.99
49489;SHT31;35382;51.484;11.476;2022-11-25T07:13:20;0.17;99.99
49489;SHT31;35382;51.484;11.476;2022-11-25T07:15:01;0.54;99.99
49489;SHT31;35382;51.484;11.476;2022-11-25T07:16:43;0.75;99.99
49489;SHT31;35382;51.484;11.476;2022-11-25T07:18:25;0.91;99.99
49489;SHT31;35382;51.484;11.476;2022-11-25T07:20:06;0.91;99.99
49489;SHT31;35382;51.484;11.476;2022-11-25T07:21:47;1.01;99.99
49489;SHT31;35382;51.484;11.476;2022-11-25T07:23:28;1.12;99.99
49489;SHT31;35382;51.484;11.476;2022-11-25T07:25:09;1.18;99.99
49489;SHT31;35382;51.484;11.476;2022-11-25T07:26:50;1.24;99.99
49489;SHT31;35382;51.484;11.476;2022-11-25T07:28:32;1.36;99.99
49489;SHT31;35382;51.484;11.476;2022-11-25T07:30:13;1.39;99.99
49489;SHT31;35382;51.484;11.476;2022-11-25T07:31:54;1.42;99.99
49489;SHT31;35382;51.484;11.476;2022-11-25T07:33:35;1.42;99.99
49489;SHT31;35382;51.484;11.476;2022-11-25T07:35:16;1.43;99.99
49489;SHT31;35382;51.484;11.476;2022-11-25T07:36:57;1.53;99.99
49489;SHT31;35382;51.484;11.476;2022-11-25T07:38:38;1.53;99.99
49489;SHT31;35382;51.484;11.476;2022-11-25T07:40:19;1.66;99.99
49489;SHT31;35382;51.484;11.476;2022-11-25T07:42:00;1.55;99.99
49489;SHT31;35382;51.484;11.476;2022-11-25T07:43:48;1.49;99.99
49489;SHT31;35382;51.484;11.476;2022-11-25T07:45:33;1.42;99.99
49489;SHT31;35382;51.484;11.476;2022-11-25T07:47:21;1.51;99.99
49489;SHT31;35382;51.484;11.476;2022-11-25T07:49:05;1.56;99.99
49489;SHT31;35382;51.484;11.476;2022-11-25T07:50:46;1.58;99.99
49489;SHT31;35382;51.484;11.476;2022-11-25T07:52:29;1.69;99.99
49489;SHT31;35382;51.484;11.476;2022-11-25T07:54:11;1.89;99.99
49489;SHT31;35382;51.484;11.476;2022-11-25T07:55:52;1.97;99.99
49489;SHT31;35382;51.484;11.476;2022-11-25T07:57:33;2.10;99.99
49489;SHT31;35382;51.484;11.476;2022-11-25T07:59:16;2.47;99.99
49489;SHT31;35382;51.484;11.476;2022-11-25T08:01:02;2.53;99.99
49489;SHT31;35382;51.484;11.476;2022-11-25T08:02:43;2.57;99.99
49489;SHT31;35382;51.484;11.476;2022-11-25T08:04:24;2.83;99.99
49489;SHT31;35382;51.484;11.476;2022-11-25T08:06:10;2.75;99.99
49489;SHT31;35382;51.484;11.476;2022-11-25T08:07:51;2.77;99.99
49489;SHT31;35382;51.484;11.476;2022-11-25T08:09:32;2.81;99.99
49489;SHT31;35382;51.484;11.476;2022-11-25T08:11:17;2.74;99.69
49489;SHT31;35382;51.484;11.476;2022-11-25T08:12:58;2.75;99.99
49489;SHT31;35382;51.484;11.476;2022-11-25T08:14:40;2.83;99.99
49489;SHT31;35382;51.484;11.476;2022-11-25T08:16:23;3.02;99.99
49489;SHT31;35382;51.484;11.476;2022-11-25T08:18:04;3.13;99.99
49489;SHT31;35382;51.484;11.476;2022-11-25T08:19:45;3.07;99.99
49489;SHT31;35382;51.484;11.476;2022-11-25T08:21:27;3.13;99.99
49489;SHT31;35382;51.484;11.476;2022-11-25T08:23:08;3.19;99.99
49489;SHT31;35382;51.484;11.476;2022-11-25T08:24:49;3.19;99.99
49489;SHT31;35382;51.484;11.476;2022-11-25T08:26:32;3.22;99.99
49489;SHT31;35382;51.484;11.476;2022-11-25T08:28:15;3.42;99.99
49489;SHT31;35382;51.484;11.476;2022-11-25T08:29:56;3.51;99.99
49489;SHT31;35382;51.484;11.476;2022-11-25T08:31:37;3.76;99.99
49489;SHT31;35382;51.484;11.476;2022-11-25T08:33:18;3.60;99.74
49489;SHT31;35382;51.484;11.476;2022-11-25T08:34:59;3.63;99.69
49489;SHT31;35382;51.484;11.476;2022-11-25T08:36:40;3.62;99.39
49489;SHT31;35382;51.484;11.476;2022-11-25T08:38:21;3.56;99.66
49489;SHT31;35382;51.484;11.476;2022-11-25T08:40:02;3.60;99.95
49489;SHT31;35382;51.484;11.476;2022-11-25T08:41:43;3.73;99.99
49489;SHT31;35382;51.484;11.476;2022-11-25T08:43:25;3.75;99.99
49489;SHT31;35382;51.484;11.476;2022-11-25T08:45:07;3.80;99.99
49489;SHT31;35382;51.484;11.476;2022-11-25T08:46:48;3.97;99.99
49489;SHT31;35382;51.484;11.476;2022-11-25T08:48:29;4.09;99.99
49489;SHT31;35382;51.484;11.476;2022-11-25T08:50:13;4.20;99.96
49489;SHT31;35382;51.484;11.476;2022-11-25T08:51:54;4.33;99.99
49489;SHT31;35382;51.484;11.476;2022-11-25T08:53:35;4.45;99.99
49489;SHT31;35382;51.484;11.476;2022-11-25T08:55:16;4.53;99.99
49489;SHT31;35382;51.484;11.476;2022-11-25T08:56:57;4.65;99.99
49489;SHT31;35382;51.484;11.476;2022-11-25T08:58:40;4.71;99.81
49489;SHT31;35382;51.484;11.476;2022-11-25T09:00:21;4.64;99.71
49489;SHT31;35382;51.484;11.476;2022-11-25T09:02:02;4.65;99.83
49489;SHT31;35382;51.484;11.476;2022-11-25T09:03:46;4.57;99.58
49489;SHT31;35382;51.484;11.476;2022-11-25T09:05:28;4.61;99.78
49489;SHT31;35382;51.484;11.476;2022-11-25T09:07:15;4.68;99.78
49489;SHT31;35382;51.484;11.476;2022-11-25T09:08:57;4.75;99.88
49489;SHT31;35382;51.484;11.476;2022-11-25T09:10:41;4.75;99.80
49489;SHT31;35382;51.484;11.476;2022-11-25T09:12:22;4.88;99.84
49489;SHT31;35382;51.484;11.476;2022-11-25T09:14:03;4.99;99.58
49489;SHT31;35382;51.484;11.476;2022-11-25T09:15:44;5.16;99.39
49489;SHT31;35382;51.484;11.476;2022-11-25T09:17:25;5.25;99.17
49489;SHT31;35382;51.484;11.476;2022-11-25T09:19:07;5.43;99.09
49489;SHT31;35382;51.484;11.476;2022-11-25T09:20:48;5.42;98.68
49489;SHT31;35382;51.484;11.476;2022-11-25T09:22:29;5.53;98.97
49489;SHT31;35382;51.484;11.476;2022-11-25T09:24:10;5.63;98.79
49489;SHT31;35382;51.484;11.476;2022-11-25T09:25:52;5.59;98.47
49489;SHT31;35382;51.484;11.476;2022-11-25T09:27:33;5.67;98.33
49489;SHT31;35382;51.484;11.476;2022-11-25T09:29:14;5.67;98.26
49489;SHT31;35382;51.484;11.476;2022-11-25T09:30:55;5.77;98.28
49489;SHT31;35382;51.484;11.476;2022-11-25T09:32:36;5.91;97.95
49489;SHT31;35382;51.484;11.476;2022-11-25T09:34:17;6.04;98.02
49489;SHT31;35382;51.484;11.476;2022-11-25T09:35:59;6.13;97.60
49489;SHT31;35382;51.484;11.476;2022-11-25T09:37:40;6.13;97.44
49489;SHT31;35382;51.484;11.476;2022-11-25T09:39:21;6.25;96.98
49489;SHT31;35382;51.484;11.476;2022-11-25T09:45:21;6.23;96.44
49489;SHT31;35382;51.484;11.476;2022-11-25T09:47:38;6.24;96.21
49489;SHT31;35382;51.484;11.476;2022-11-25T09:52:06;6.67;95.65
49489;SHT31;35382;51.484;11.476;2022-11-25T09:54:22;6.79;94.45
49489;SHT31;35382;51.484;11.476;2022-11-25T09:56:13;6.82;93.37
49489;SHT31;35382;51.484;11.476;2022-11-25T09:59:46;6.82;93.79
49489;SHT31;35382;51.484;11.476;2022-11-25T10:01:30;6.75;93.54
49489;SHT31;35382;51.484;11.476;2022-11-25T10:03:23;6.78;93.84
49489;SHT31;35382;51.484;11.476;2022-11-25T10:05:16;6.69;95.23
49489;SHT31;35382;51.484;11.476;2022-11-25T10:07:00;6.85;96.43
49489;SHT31;35382;51.484;11.476;2022-11-25T10:08:44;6.71;95.90
49489;SHT31;35382;51.484;11.476;2022-11-25T10:10:40;6.84;95.31
